Time,TemperatureF,DewpointF,PressureIn,WindDirection,WindDirectionDegrees,WindSpeedMPH,WindSpeedGustMPH,Humidity,HourlyPrecipIn,Conditions,Clouds,dailyrainin,SoftwareType,DateUTC
2013-02-21 00:05:00,20.8,1.9,30.20,NNW,333,3.0,7.0,43,0.00,,,-99.99,Weather View 32 v60,2013-02-21 05:05:00,
2013-02-21 00:15:00,20.8,1.9,30.20,NNW,341,4.0,7.0,43,0.00,,,-99.99,Weather View 32 v60,2013-02-21 05:15:00,
2013-02-21 00:20:00,20.8,1.9,30.20,NNW,330,5.0,7.0,43,0.00,,,-99.99,Weather View 32 v60,2013-02-21 05:20:00,
2013-02-21 00:25:00,20.7,1.7,30.20,NNW,346,3.0,7.0,43,0.00,,,-99.99,Weather View 32 v60,2013-02-21 05:25:00,
2013-02-21 00:30:00,20.7,1.7,30.20,North,0,4.0,8.0,43,0.00,,,-99.99,Weather View 32 v60,2013-02-21 05:30:00,
2013-02-21 00:35:00,20.8,1.9,30.20,North,353,3.0,8.0,43,0.00,,,-99.99,Weather View 32 v60,2013-02-21 05:35:00,
2013-02-21 00:40:00,20.8,1.9,30.20,NNW,337,4.0,8.0,43,0.00,,,-99.99,Weather View 32 v60,2013-02-21 05:40:00,
2013-02-21 00:45:00,20.8,1.9,30.20,North,0,3.0,8.0,43,0.00,,,-99.99,Weather View 32 v60,2013-02-21 05:45:00,
2013-02-21 00:50:00,20.8,1.9,30.20,NW,324,3.0,8.0,43,0.00,,,-99.99,Weather View 32 v60,2013-02-21 05:50:00,
2013-02-21 00:55:00,20.8,1.9,30.20,NNW,340,3.0,8.0,43,0.00,,,-99.99,Weather View 32 v60,2013-02-21 05:55:00,
2013-02-21 01:00:00,20.8,1.9,30.20,NNW,341,4.0,8.0,43,0.00,,,-99.99,Weather View 32 v60,2013-02-21 06:00:00,
2013-02-21 01:05:00,20.8,1.9,30.20,NNW,343,3.0,8.0,43,0.00,,,-99.99,Weather View 32 v60,2013-02-21 06:05:00,
2013-02-21 01:10:00,20.8,1.9,30.20,NW,324,4.0,8.0,43,0.00,,,-99.99,Weather View 32 v60,2013-02-21 06:10:00,
2013-02-21 01:16:00,20.8,1.9,30.20,NNW,334,3.0,8.0,43,0.00,,,-99.99,Weather View 32 v60,2013-02-21 06:16:00,
2013-02-21 01:25:00,20.8,1.9,30.20,NNW,337,3.0,8.0,43,0.00,,,-99.99,Weather View 32 v60,2013-02-21 06:25:00,
2013-02-21 01:30:00,20.8,1.9,30.20,NNW,327,4.0,7.0,43,0.00,,,-99.99,Weather View 32 v60,2013-02-21 06:30:00,
2013-02-21 01:40:00,20.8,1.9,30.20,NNE,13,4.0,8.0,43,0.00,,,-99.99,Weather View 32 v60,2013-02-21 06:40:00,
2013-02-21 01:50:00,20.7,1.7,30.20,North,353,4.0,8.0,43,0.00,,,-99.99,Weather View 32 v60,2013-02-21 06:50:00,
2013-02-21 01:55:00,20.7,1.7,30.20,NNW,344,3.0,8.0,43,0.00,,,-99.99,Weather View 32 v60,2013-02-21 06:55:00,
2013-02-21 02:00:00,20.7,1.7,30.20,NNE,13,2.0,8.0,43,0.00,,,-99.99,Weather View 32 v60,2013-02-21 07:00:00,
2013-02-21 02:05:00,20.7,1.7,30.20,NW,308,4.0,8.0,43,0.00,,,-99.99,Weather View 32 v60,2013-02-21 07:05:00,
2013-02-21 02:10:00,20.7,1.7,30.23,NNW,334,3.0,8.0,43,0.00,,,-99.99,Weather View 32 v60,2013-02-21 07:10:00,
2013-02-21 02:15:00,20.7,1.7,30.23,NNW,331,4.0,8.0,43,0.00,,,-99.99,Weather View 32 v60,2013-02-21 07:15:00,
2013-02-21 02:20:00,20.7,1.7,30.23,NNW,340,3.0,8.0,43,0.00,,,-99.99,Weather View 32 v60,2013-02-21 07:20:00,
2013-02-21 02:25:00,20.7,1.7,30.23,NNW,336,2.0,8.0,43,0.00,,,-99.99,Weather View 32 v60,2013-02-21 07:25:00,
2013-02-21 02:30:00,20.7,1.7,30.23,NNW,336,2.0,8.0,43,0.00,,,-99.99,Weather View 32 v60,2013-02-21 07:30:00,
2013-02-21 02:35:00,20.7,1.7,30.23,North,3,0.0,6.0,43,0.00,,,-99.99,Weather View 32 v60,2013-02-21 07:35:00,
2013-02-21 02:40:00,20.7,1.7,30.23,North,2,0.0,6.0,43,0.00,,,-99.99,Weather View 32 v60,2013-02-21 07:40:00,
2013-02-21 02:45:00,20.7,1.7,30.23,NW,317,3.0,6.0,43,0.00,,,-99.99,Weather View 32 v60,2013-02-21 07:45:00,
2013-02-21 02:50:00,20.7,1.7,30.23,NW,314,0.0,6.0,43,0.00,,,-99.99,Weather View 32 v60,2013-02-21 07:50:00,
2013-02-21 02:55:00,20.7,1.7,30.23,NW,315,3.0,6.0,43,0.00,,,-99.99,Weather View 32 v60,2013-02-21 07:55:00,
2013-02-21 03:00:00,20.7,1.7,30.23,NW,321,2.0,6.0,43,0.00,,,-99.99,Weather View 32 v60,2013-02-21 08:00:00,
2013-02-21 03:05:00,20.7,2.2,30.23,NW,313,3.0,6.0,44,0.00,,,-99.99,Weather View 32 v60,2013-02-21 08:05:00,
2013-02-21 03:15:00,20.7,1.7,30.23,NW,323,3.0,6.0,43,0.00,,,-99.99,Weather View 32 v60,2013-02-21 08:15:00,
2013-02-21 03:25:00,20.7,1.7,30.23,West,274,4.0,6.0,43,0.00,,,-99.99,Weather View 32 v60,2013-02-21 08:25:00,
2013-02-21 03:30:00,20.7,1.7,30.23,North,0,3.0,6.0,43,0.00,,,-99.99,Weather View 32 v60,2013-02-21 08:30:00,
2013-02-21 03:40:00,20.8,2.4,30.23,NNW,343,8.0,11.0,44,0.00,,,-99.99,Weather View 32 v60,2013-02-21 08:40:00,
2013-02-21 03:50:00,20.8,2.4,30.23,NNW,338,3.0,11.0,44,0.00,,,-99.99,Weather View 32 v60,2013-02-21 08:50:00,
2013-02-21 03:55:00,20.8,2.4,30.23,NNW,339,0.0,11.0,44,0.00,,,-99.99,Weather View 32 v60,2013-02-21 08:55:00,
2013-02-21 04:00:00,20.8,2.4,30.23,NNW,342,0.0,11.0,44,0.00,,,-99.99,Weather View 32 v60,2013-02-21 09:00:00,
2013-02-21 04:05:00,20.8,2.4,30.23,NNW,345,0.0,11.0,44,0.00,,,-99.99,Weather View 32 v60,2013-02-21 09:05:00,
2013-02-21 04:10:00,20.8,2.4,30.23,North,357,0.0,11.0,44,0.00,,,-99.99,Weather View 32 v60,2013-02-21 09:10:00,
2013-02-21 04:15:00,20.8,2.4,30.23,North,357,0.0,11.0,44,0.00,,,-99.99,Weather View 32 v60,2013-02-21 09:15:00,
2013-02-21 04:20:00,20.8,2.4,30.23,North,357,0.0,11.0,44,0.00,,,-99.99,Weather View 32 v60,2013-02-21 09:20:00,
2013-02-21 04:25:00,20.8,2.4,30.23,North,5,0.0,11.0,44,0.00,,,-99.99,Weather View 32 v60,2013-02-21 09:25:00,
2013-02-21 04:30:00,20.8,2.4,30.23,North,357,0.0,11.0,44,0.00,,,-99.99,Weather View 32 v60,2013-02-21 09:30:00,
2013-02-21 04:35:00,20.8,2.4,30.23,NNW,348,0.0,11.0,44,0.00,,,-99.99,Weather View 32 v60,2013-02-21 09:35:00,
2013-02-21 04:40:00,20.7,2.2,30.23,NNE,19,0.0,11.0,44,0.00,,,-99.99,Weather View 32 v60,2013-02-21 09:40:00,
2013-02-21 04:45:00,20.7,2.2,30.23,North,5,0.0,6.0,44,0.00,,,-99.99,Weather View 32 v60,2013-02-21 09:45:00,
2013-02-21 04:55:00,20.7,2.2,30.23,North,1,0.0,6.0,44,0.00,,,-99.99,Weather View 32 v60,2013-02-21 09:55:00,
2013-02-21 05:05:00,20.5,2.0,30.23,NNW,335,0.0,6.0,44,0.00,,,-99.99,Weather View 32 v60,2013-02-21 10:05:00,
2013-02-21 05:10:00,20.5,2.0,30.23,NNW,337,3.0,6.0,44,0.00,,,-99.99,Weather View 32 v60,2013-02-21 10:10:00,
2013-02-21 05:15:00,20.5,2.0,30.23,NE,37,2.0,6.0,44,0.00,,,-99.99,Weather View 32 v60,2013-02-21 10:15:00,
2013-02-21 05:20:00,20.5,2.0,30.23,North,3,3.0,6.0,44,0.00,,,-99.99,Weather View 32 v60,2013-02-21 10:20:00,
2013-02-21 05:25:00,20.5,2.0,30.26,NNW,328,3.0,6.0,44,0.00,,,-99.99,Weather View 32 v60,2013-02-21 10:25:00,
2013-02-21 05:35:00,20.3,1.9,30.26,NW,321,2.0,6.0,44,0.00,,,-99.99,Weather View 32 v60,2013-02-21 10:35:00,
2013-02-21 05:40:00,20.3,1.9,30.26,NNW,340,3.0,6.0,44,0.00,,,-99.99,Weather View 32 v60,2013-02-21 10:40:00,
2013-02-21 05:45:00,20.3,1.9,30.26,North,0,2.0,6.0,44,0.00,,,-99.99,Weather View 32 v60,2013-02-21 10:45:00,
2013-02-21 05:55:00,20.3,1.9,30.26,North,357,0.0,6.0,44,0.00,,,-99.99,Weather View 32 v60,2013-02-21 10:55:00,
2013-02-21 06:00:00,20.3,1.9,30.26,North,357,0.0,6.0,44,0.00,,,-99.99,Weather View 32 v60,2013-02-21 11:00:00,
2013-02-21 06:05:00,20.3,1.9,30.26,North,357,0.0,6.0,44,0.00,,,-99.99,Weather View 32 v60,2013-02-21 11:05:00,
2013-02-21 06:15:00,20.1,1.7,30.26,NNE,22,0.0,6.0,44,0.00,,,-99.99,Weather View 32 v60,2013-02-21 11:15:00,
2013-02-21 06:20:00,19.9,1.5,30.26,North,357,3.0,6.0,44,0.00,,,-99.99,Weather View 32 v60,2013-02-21 11:20:00,
2013-02-21 06:25:00,19.9,1.5,30.26,North,0,0.0,6.0,44,0.00,,,-99.99,Weather View 32 v60,2013-02-21 11:25:00,
2013-02-21 06:35:00,19.9,1.5,30.26,NNE,19,0.0,6.0,44,0.00,,,-99.99,Weather View 32 v60,2013-02-21 11:35:00,
2013-02-21 06:40:00,19.9,1.5,30.29,NNW,345,0.0,5.0,44,0.00,,,-99.99,Weather View 32 v60,2013-02-21 11:40:00,
2013-02-21 06:45:00,19.8,1.4,30.29,North,3,3.0,5.0,44,0.00,,,-99.99,Weather View 32 v60,2013-02-21 11:45:00,
2013-02-21 06:55:00,19.8,1.4,30.29,NNW,344,3.0,5.0,44,0.00,,,-99.99,Weather View 32 v60,2013-02-21 11:55:00,
2013-02-21 07:00:00,19.6,1.2,30.29,NNW,332,4.0,6.0,44,0.00,,,-99.99,Weather View 32 v60,2013-02-21 12:00:00,
2013-02-21 07:05:00,19.6,1.2,30.29,NNW,338,4.0,6.0,44,0.00,,,-99.99,Weather View 32 v60,2013-02-21 12:05:00,
2013-02-21 07:15:00,19.4,1.0,30.29,NNW,342,3.0,6.0,44,0.00,,,-99.99,Weather View 32 v60,2013-02-21 12:15:00,
2013-02-21 07:20:00,19.2,0.9,30.29,North,353,4.0,6.0,44,0.00,,,-99.99,Weather View 32 v60,2013-02-21 12:20:00,
2013-02-21 07:25:00,19.2,0.9,30.29,NNW,338,3.0,6.0,44,0.00,,,-99.99,Weather View 32 v60,2013-02-21 12:25:00,
2013-02-21 07:30:00,19.2,0.9,30.29,North,0,3.0,6.0,44,0.00,,,-99.99,Weather View 32 v60,2013-02-21 12:30:00,
2013-02-21 07:40:00,18.9,0.5,30.31,North,353,3.0,8.0,44,0.00,,,-99.99,Weather View 32 v60,2013-02-21 12:40:00,
2013-02-21 07:45:00,18.7,0.4,30.31,NW,323,3.0,8.0,44,0.00,,,-99.99,Weather View 32 v60,2013-02-21 12:45:00,
2013-02-21 07:55:00,18.5,0.2,30.31,NNW,345,3.0,8.0,44,0.00,,,-99.99,Weather View 32 v60,2013-02-21 12:55:00,
2013-02-21 08:00:00,18.5,0.2,30.31,North,357,6.0,8.0,44,0.00,,,-99.99,Weather View 32 v60,2013-02-21 13:00:00,
2013-02-21 08:05:00,18.3,-0.4,30.31,North,1,6.0,8.0,43,0.00,,,-99.99,Weather View 32 v60,2013-02-21 13:05:00,
2013-02-21 08:15:00,18.0,-0.8,30.31,NNE,25,3.0,8.0,43,0.00,,,-99.99,Weather View 32 v60,2013-02-21 13:15:00,
2013-02-21 08:20:00,17.8,-0.4,30.31,North,357,0.0,8.0,44,0.00,,,-99.99,Weather View 32 v60,2013-02-21 13:20:00,
2013-02-21 08:25:00,17.8,-0.4,30.31,NNE,32,3.0,8.0,44,0.00,,,-99.99,Weather View 32 v60,2013-02-21 13:25:00,
2013-02-21 08:30:00,17.6,-0.6,30.31,East,82,3.0,8.0,44,0.00,,,-99.99,Weather View 32 v60,2013-02-21 13:30:00,
2013-02-21 08:40:00,17.6,-0.6,30.31,North,11,4.0,9.0,44,0.00,,,-99.99,Weather View 32 v60,2013-02-21 13:40:00,
2013-02-21 08:45:00,17.6,-0.6,30.31,North,0,6.0,9.0,44,0.00,,,-99.99,Weather View 32 v60,2013-02-21 13:45:00,
2013-02-21 08:50:00,17.4,-0.8,30.31,NNW,345,3.0,9.0,44,0.00,,,-99.99,Weather View 32 v60,2013-02-21 13:50:00,
2013-02-21 09:00:00,17.1,-1.1,30.31,North,350,4.0,9.0,44,0.00,,,-99.99,Weather View 32 v60,2013-02-21 14:00:00,
2013-02-21 09:05:00,17.1,-1.1,30.31,NW,316,4.0,9.0,44,0.00,,,-99.99,Weather View 32 v60,2013-02-21 14:05:00,
2013-02-21 09:15:00,17.1,-1.1,30.29,NE,43,5.0,9.0,44,0.00,,,-99.99,Weather View 32 v60,2013-02-21 14:15:00,
2013-02-21 09:20:00,17.1,-1.1,30.29,North,353,4.0,9.0,44,0.00,,,-99.99,Weather View 32 v60,2013-02-21 14:20:00,
2013-02-21 09:25:00,17.1,-1.1,30.29,NNE,23,4.0,9.0,44,0.00,,,-99.99,Weather View 32 v60,2013-02-21 14:25:00,
2013-02-21 09:30:00,17.1,-1.1,30.29,North,6,3.0,9.0,44,0.00,,,-99.99,Weather View 32 v60,2013-02-21 14:30:00,
2013-02-21 09:40:00,17.2,-0.9,30.29,NNE,22,3.0,9.0,44,0.00,,,-99.99,Weather View 32 v60,2013-02-21 14:40:00,
2013-02-21 09:45:00,17.2,-0.9,30.29,NNE,13,3.0,9.0,44,0.00,,,-99.99,Weather View 32 v60,2013-02-21 14:45:00,
2013-02-21 09:50:00,17.4,-0.8,30.29,NNW,345,4.0,8.0,44,0.00,,,-99.99,Weather View 32 v60,2013-02-21 14:50:00,
2013-02-21 10:00:00,17.6,-0.6,30.31,North,5,4.0,8.0,44,0.00,,,-99.99,Weather View 32 v60,2013-02-21 15:00:00,
2013-02-21 10:05:00,17.6,-0.6,30.31,NE,39,0.0,8.0,44,0.00,,,-99.99,Weather View 32 v60,2013-02-21 15:05:00,
2013-02-21 10:10:00,17.8,-0.9,30.34,NNE,26,0.0,8.0,43,0.00,,,-99.99,Weather View 32 v60,2013-02-21 15:10:00,
2013-02-21 10:20:00,18.0,-0.8,30.34,North,10,2.0,8.0,43,0.00,,,-99.99,Weather View 32 v60,2013-02-21 15:20:00,
2013-02-21 10:25:00,18.1,-0.6,30.34,NE,35,3.0,8.0,43,0.00,,,-99.99,Weather View 32 v60,2013-02-21 15:25:00,
2013-02-21 10:30:00,18.3,-0.4,30.34,NNW,345,3.0,7.0,43,0.00,,,-99.99,Weather View 32 v60,2013-02-21 15:30:00,
2013-02-21 10:40:00,18.3,-0.4,30.31,ENE,59,6.0,6.0,43,0.00,,,-99.99,Weather View 32 v60,2013-02-21 15:40:00,
2013-02-21 10:45:00,18.3,-0.4,30.31,NNW,328,3.0,6.0,43,0.00,,,-99.99,Weather View 32 v60,2013-02-21 15:45:00,
2013-02-21 10:50:00,18.3,-0.4,30.31,NE,47,2.0,6.0,43,0.00,,,-99.99,Weather View 32 v60,2013-02-21 15:50:00,
2013-02-21 11:00:00,18.7,-0.1,30.31,East,81,4.0,7.0,43,0.00,,,-99.99,Weather View 32 v60,2013-02-21 16:00:00,
2013-02-21 11:05:00,18.7,-0.6,30.31,East,85,5.0,8.0,42,0.00,,,-99.99,Weather View 32 v60,2013-02-21 16:05:00,
2013-02-21 11:10:00,18.7,-1.1,30.31,NE,44,3.0,8.0,41,0.00,,,-99.99,Weather View 32 v60,2013-02-21 16:10:00,
2013-02-21 11:20:00,18.7,-1.6,30.31,ESE,111,3.0,8.0,40,0.00,,,-99.99,Weather View 32 v60,2013-02-21 16:20:00,
2013-02-21 11:25:00,18.9,-1.5,30.31,East,81,4.0,8.0,40,0.00,,,-99.99,Weather View 32 v60,2013-02-21 16:25:00,
2013-02-21 11:30:00,19.0,-1.3,30.31,NE,49,3.0,8.0,40,0.00,,,-99.99,Weather View 32 v60,2013-02-21 16:30:00,
2013-02-21 11:40:00,19.0,-1.3,30.31,ESE,117,4.0,8.0,40,0.00,,,-99.99,Weather View 32 v60,2013-02-21 16:40:00,
2013-02-21 11:45:00,19.2,-1.2,30.31,East,92,0.0,8.0,40,0.00,,,-99.99,Weather View 32 v60,2013-02-21 16:45:00,
2013-02-21 11:50:00,19.2,-1.2,30.31,North,3,0.0,8.0,40,0.00,,,-99.99,Weather View 32 v60,2013-02-21 16:50:00,
2013-02-21 12:00:00,19.4,-0.5,30.34,East,79,2.0,8.0,41,0.00,,,-99.99,Weather View 32 v60,2013-02-21 17:00:00,
2013-02-21 12:05:00,19.4,-0.5,30.34,ENE,70,0.0,8.0,41,0.00,,,-99.99,Weather View 32 v60,2013-02-21 17:05:00,
2013-02-21 12:10:00,19.6,-0.8,30.34,NE,53,3.0,8.0,40,0.00,,,-99.99,Weather View 32 v60,2013-02-21 17:10:00,
2013-02-21 12:20:00,19.9,-1.0,30.34,East,101,0.0,6.0,39,0.00,,,-99.99,Weather View 32 v60,2013-02-21 17:20:00,
2013-02-21 12:25:00,20.1,-0.9,30.31,East,99,4.0,6.0,39,0.00,,,-99.99,Weather View 32 v60,2013-02-21 17:25:00,
2013-02-21 12:30:00,20.1,-0.9,30.31,ESE,112,0.0,6.0,39,0.00,,,-99.99,Weather View 32 v60,2013-02-21 17:30:00,
2013-02-21 12:35:00,20.1,-0.9,30.31,NE,52,4.0,6.0,39,0.00,,,-99.99,Weather View 32 v60,2013-02-21 17:35:00,
2013-02-21 12:45:00,20.3,-1.3,30.31,North,7,3.0,6.0,38,0.00,,,-99.99,Weather View 32 v60,2013-02-21 17:45:00,
2013-02-21 12:50:00,20.3,-1.3,30.31,East,92,3.0,6.0,38,0.00,,,-99.99,Weather View 32 v60,2013-02-21 17:50:00,
2013-02-21 12:55:00,20.3,-1.3,30.31,East,97,0.0,6.0,38,0.00,,,-99.99,Weather View 32 v60,2013-02-21 17:55:00,
2013-02-21 13:05:00,20.5,-0.6,30.31,NNE,17,3.0,6.0,39,0.00,,,-99.99,Weather View 32 v60,2013-02-21 18:05:00,
2013-02-21 13:10:00,20.7,-0.4,30.31,NNW,330,3.0,6.0,39,0.00,,,-99.99,Weather View 32 v60,2013-02-21 18:10:00,
2013-02-21 13:15:00,20.7,-0.4,30.31,NNW,332,0.0,6.0,39,0.00,,,-99.99,Weather View 32 v60,2013-02-21 18:15:00,
2013-02-21 13:22:00,20.8,-0.2,30.31,NW,324,4.0,6.0,39,0.00,,,-99.99,Weather View 32 v60,2013-02-21 18:22:00,
2013-02-21 13:30:00,21.0,-0.6,30.31,NNE,28,5.0,6.0,38,0.00,,,-99.99,Weather View 32 v60,2013-02-21 18:30:00,
2013-02-21 13:40:00,21.2,-0.5,30.31,NNW,337,3.0,6.0,38,0.00,,,-99.99,Weather View 32 v60,2013-02-21 18:40:00,
2013-02-21 13:45:00,21.4,-0.3,30.31,ENE,61,3.0,6.0,38,0.00,,,-99.99,Weather View 32 v60,2013-02-21 18:45:00,
2013-02-21 13:50:00,21.6,-0.1,30.31,WNW,302,4.0,6.0,38,0.00,,,-99.99,Weather View 32 v60,2013-02-21 18:50:00,
2013-02-21 14:00:00,21.7,-0.5,30.31,NNW,343,3.0,6.0,37,0.00,,,-99.99,Weather View 32 v60,2013-02-21 19:00:00,
2013-02-21 14:05:00,21.7,-0.5,30.31,NNW,336,2.0,6.0,37,0.00,,,-99.99,Weather View 32 v60,2013-02-21 19:05:00,
2013-02-21 14:10:00,21.9,-0.4,30.31,WNW,295,3.0,6.0,37,0.00,,,-99.99,Weather View 32 v60,2013-02-21 19:10:00,
2013-02-21 14:20:00,22.3,-0.1,30.31,ENE,58,3.0,8.0,37,0.00,,,-99.99,Weather View 32 v60,2013-02-21 19:20:00,
2013-02-21 14:25:00,22.5,0.1,30.31,NE,44,0.0,8.0,37,0.00,,,-99.99,Weather View 32 v60,2013-02-21 19:25:00,
2013-02-21 14:30:00,22.5,-0.5,30.31,NE,37,2.0,8.0,36,0.00,,,-99.99,Weather View 32 v60,2013-02-21 19:30:00,
2013-02-21 14:35:00,22.6,-0.3,30.31,East,86,4.0,8.0,36,0.00,,,-99.99,Weather View 32 v60,2013-02-21 19:35:00,
2013-02-21 14:40:00,22.6,-0.3,30.31,NNW,345,0.0,8.0,36,0.00,,,-99.99,Weather View 32 v60,2013-02-21 19:40:00,
2013-02-21 14:45:00,22.8,0.4,30.31,WNW,300,0.0,8.0,37,0.00,,,-99.99,Weather View 32 v60,2013-02-21 19:45:00,
2013-02-21 14:50:00,22.8,-0.2,30.31,NNE,17,0.0,8.0,36,0.00,,,-99.99,Weather View 32 v60,2013-02-21 19:50:00,
2013-02-21 14:55:00,22.8,-0.2,30.29,East,89,4.0,8.0,36,0.00,,,-99.99,Weather View 32 v60,2013-02-21 19:55:00,
2013-02-21 15:05:00,23.2,-0.4,30.29,NE,41,2.0,8.0,35,0.00,,,-99.99,Weather View 32 v60,2013-02-21 20:05:00,
2013-02-21 15:10:00,23.2,-0.4,30.29,North,5,3.0,8.0,35,0.00,,,-99.99,Weather View 32 v60,2013-02-21 20:10:00,
2013-02-21 15:15:00,23.2,-0.4,30.29,NE,47,0.0,8.0,35,0.00,,,-99.99,Weather View 32 v60,2013-02-21 20:15:00,
2013-02-21 15:20:00,23.4,-0.3,30.29,ENE,74,4.0,8.0,35,0.00,,,-99.99,Weather View 32 v60,2013-02-21 20:20:00,
2013-02-21 15:25:00,23.4,-0.3,30.29,NE,42,3.0,8.0,35,0.00,,,-99.99,Weather View 32 v60,2013-02-21 20:25:00,
2013-02-21 15:30:00,23.4,-0.3,30.29,North,0,2.0,8.0,35,0.00,,,-99.99,Weather View 32 v60,2013-02-21 20:30:00,
2013-02-21 15:35:00,23.4,-0.3,30.29,ENE,63,2.0,8.0,35,0.00,,,-99.99,Weather View 32 v60,2013-02-21 20:35:00,
2013-02-21 15:40:00,23.4,-0.3,30.26,NE,36,3.0,8.0,35,0.00,,,-99.99,Weather View 32 v60,2013-02-21 20:40:00,
2013-02-21 15:45:00,23.5,-0.1,30.26,NE,38,3.0,8.0,35,0.00,,,-99.99,Weather View 32 v60,2013-02-21 20:45:00,
2013-02-21 15:55:00,23.5,-0.7,30.26,ENE,68,3.0,8.0,34,0.00,,,-99.99,Weather View 32 v60,2013-02-21 20:55:00,
2013-02-21 16:00:00,23.5,-0.7,30.26,NNW,348,0.0,8.0,34,0.00,,,-99.99,Weather View 32 v60,2013-02-21 21:00:00,
2013-02-21 16:05:00,23.5,-0.7,30.26,NE,51,5.0,8.0,34,0.00,,,-99.99,Weather View 32 v60,2013-02-21 21:05:00,
2013-02-21 16:10:00,23.5,-0.7,30.26,NE,46,0.0,8.0,34,0.00,,,-99.99,Weather View 32 v60,2013-02-21 21:10:00,
2013-02-21 16:15:00,23.5,-0.7,30.26,ESE,119,3.0,8.0,34,0.00,,,-99.99,Weather View 32 v60,2013-02-21 21:15:00,
2013-02-21 16:20:00,23.5,-0.7,30.26,East,92,4.0,8.0,34,0.00,,,-99.99,Weather View 32 v60,2013-02-21 21:20:00,
2013-02-21 16:25:00,23.5,-1.4,30.26,East,90,8.0,8.0,33,0.00,,,-99.99,Weather View 32 v60,2013-02-21 21:25:00,
2013-02-21 16:30:00,23.5,-1.4,30.26,ENE,73,4.0,8.0,33,0.00,,,-99.99,Weather View 32 v60,2013-02-21 21:30:00,
2013-02-21 16:35:00,23.4,-1.5,30.26,East,93,3.0,8.0,33,0.00,,,-99.99,Weather View 32 v60,2013-02-21 21:35:00,
2013-02-21 16:45:00,23.0,-1.2,30.26,East,89,5.0,10.0,34,0.00,,,-99.99,Weather View 32 v60,2013-02-21 21:45:00,
2013-02-21 16:50:00,23.0,-1.2,30.26,East,101,4.0,10.0,34,0.00,,,-99.99,Weather View 32 v60,2013-02-21 21:50:00,
2013-02-21 16:55:00,22.8,-1.4,30.29,ESE,114,4.0,10.0,34,0.00,,,-99.99,Weather View 32 v60,2013-02-21 21:55:00,
2013-02-21 17:00:00,22.6,-1.5,30.29,NE,56,6.0,10.0,34,0.00,,,-99.99,Weather View 32 v60,2013-02-21 22:00:00,
2013-02-21 17:10:00,22.3,-1.8,30.29,ESE,120,3.0,10.0,34,0.00,,,-99.99,Weather View 32 v60,2013-02-21 22:10:00,
2013-02-21 17:15:00,22.1,-2.0,30.29,ESE,122,4.0,10.0,34,0.00,,,-99.99,Weather View 32 v60,2013-02-21 22:15:00,
2013-02-21 17:20:00,21.9,-2.2,30.29,SE,137,3.0,10.0,34,0.00,,,-99.99,Weather View 32 v60,2013-02-21 22:20:00,
2013-02-21 17:25:00,21.9,-2.2,30.31,SE,142,4.0,10.0,34,0.00,,,-99.99,Weather View 32 v60,2013-02-21 22:25:00,
2013-02-21 17:35:00,21.6,-2.5,30.31,SE,133,3.0,10.0,34,0.00,,,-99.99,Weather View 32 v60,2013-02-21 22:35:00,
2013-02-21 17:40:00,21.2,-2.2,30.31,ESE,115,3.0,10.0,35,0.00,,,-99.99,Weather View 32 v60,2013-02-21 22:40:00,
2013-02-21 17:45:00,21.2,-2.2,30.31,ESE,112,4.0,8.0,35,0.00,,,-99.99,Weather View 32 v60,2013-02-21 22:45:00,
2013-02-21 17:50:00,21.0,-2.4,30.31,ENE,76,5.0,8.0,35,0.00,,,-99.99,Weather View 32 v60,2013-02-21 22:50:00,
2013-02-21 18:00:00,20.8,-2.5,30.31,ESE,121,3.0,8.0,35,0.00,,,-99.99,Weather View 32 v60,2013-02-21 23:00:00,
2013-02-21 18:05:00,20.5,-2.8,30.31,ENE,64,4.0,8.0,35,0.00,,,-99.99,Weather View 32 v60,2013-02-21 23:05:00,
2013-02-21 18:10:00,20.3,-3.0,30.31,East,95,4.0,8.0,35,0.00,,,-99.99,Weather View 32 v60,2013-02-21 23:10:00,
2013-02-21 18:20:00,19.9,-2.7,30.31,SE,126,4.0,8.0,36,0.00,,,-99.99,Weather View 32 v60,2013-02-21 23:20:00,
2013-02-21 18:25:00,19.8,-2.9,30.31,SE,134,4.0,8.0,36,0.00,,,-99.99,Weather View 32 v60,2013-02-21 23:25:00,
2013-02-21 18:30:00,19.6,-3.0,30.31,ESE,111,4.0,8.0,36,0.00,,,-99.99,Weather View 32 v60,2013-02-21 23:30:00,
2013-02-21 18:35:00,19.4,-2.6,30.31,ESE,102,3.0,8.0,37,0.00,,,-99.99,Weather View 32 v60,2013-02-21 23:35:00,
2013-02-21 18:40:00,19.2,-2.8,30.31,ESE,105,4.0,8.0,37,0.00,,,-99.99,Weather View 32 v60,2013-02-21 23:40:00,
2013-02-21 18:45:00,19.0,-3.0,30.31,East,83,4.0,8.0,37,0.00,,,-99.99,Weather View 32 v60,2013-02-21 23:45:00,
2013-02-21 18:50:00,19.0,-3.0,30.31,ESE,114,4.0,8.0,37,0.00,,,-99.99,Weather View 32 v60,2013-02-21 23:50:00,
2013-02-21 18:55:00,18.7,-3.3,30.31,East,82,5.0,8.0,37,0.00,,,-99.99,Weather View 32 v60,2013-02-21 23:55:00,
2013-02-21 19:05:00,18.5,-3.4,30.31,ESE,106,4.0,8.0,37,0.00,,,-99.99,Weather View 32 v60,2013-02-22 00:05:00,
2013-02-21 19:10:00,18.3,-3.0,30.31,ENE,67,3.0,8.0,38,0.00,,,-99.99,Weather View 32 v60,2013-02-22 00:10:00,
2013-02-21 19:15:00,18.3,-3.0,30.31,ENE,57,4.0,8.0,38,0.00,,,-99.99,Weather View 32 v60,2013-02-22 00:15:00,
2013-02-21 19:20:00,18.1,-3.2,30.31,ESE,106,3.0,8.0,38,0.00,,,-99.99,Weather View 32 v60,2013-02-22 00:20:00,
2013-02-21 19:25:00,18.0,-3.4,30.31,East,84,3.0,8.0,38,0.00,,,-99.99,Weather View 32 v60,2013-02-22 00:25:00,
2013-02-21 19:35:00,17.8,-3.0,30.31,East,100,3.0,8.0,39,0.00,,,-99.99,Weather View 32 v60,2013-02-22 00:35:00,
2013-02-21 19:40:00,17.6,-3.2,30.29,ENE,68,5.0,8.0,39,0.00,,,-99.99,Weather View 32 v60,2013-02-22 00:40:00,
2013-02-21 19:45:00,17.6,-2.6,30.29,ESE,104,5.0,8.0,40,0.00,,,-99.99,Weather View 32 v60,2013-02-22 00:45:00,
2013-02-21 19:50:00,17.4,-2.8,30.29,East,85,3.0,8.0,40,0.00,,,-99.99,Weather View 32 v60,2013-02-22 00:50:00,
2013-02-21 19:55:00,17.4,-2.8,30.31,ENE,61,5.0,8.0,40,0.00,,,-99.99,Weather View 32 v60,2013-02-22 00:55:00,
2013-02-21 20:05:00,17.2,-2.4,30.31,ENE,70,3.0,6.0,41,0.00,,,-99.99,Weather View 32 v60,2013-02-22 01:05:00,
2013-02-21 20:10:00,17.1,-2.6,30.29,ENE,77,4.0,6.0,41,0.00,,,-99.99,Weather View 32 v60,2013-02-22 01:10:00,
2013-02-21 20:15:00,17.1,-2.6,30.29,ENE,65,6.0,6.0,41,0.00,,,-99.99,Weather View 32 v60,2013-02-22 01:15:00,
2013-02-21 20:20:00,17.1,-2.1,30.29,East,91,4.0,9.0,42,0.00,,,-99.99,Weather View 32 v60,2013-02-22 01:20:00,
2013-02-21 20:25:00,16.9,-1.8,30.29,ESE,103,3.0,9.0,43,0.00,,,-99.99,Weather View 32 v60,2013-02-22 01:25:00,
2013-02-21 20:30:00,16.9,-1.8,30.29,East,90,4.0,9.0,43,0.00,,,-99.99,Weather View 32 v60,2013-02-22 01:30:00,
2013-02-21 20:35:00,16.9,-1.8,30.29,ESE,113,3.0,9.0,43,0.00,,,-99.99,Weather View 32 v60,2013-02-22 01:35:00,
2013-02-21 20:45:00,16.9,-1.8,30.29,NE,47,4.0,9.0,43,0.00,,,-99.99,Weather View 32 v60,2013-02-22 01:45:00,
2013-02-21 20:50:00,16.7,-1.4,30.29,ESE,105,4.0,9.0,44,0.00,,,-99.99,Weather View 32 v60,2013-02-22 01:50:00,
2013-02-21 20:55:00,16.7,-1.4,30.29,ESE,115,3.0,9.0,44,0.00,,,-99.99,Weather View 32 v60,2013-02-22 01:55:00,
2013-02-21 21:00:00,16.7,-1.4,30.29,ESE,105,4.0,9.0,44,0.00,,,-99.99,Weather View 32 v60,2013-02-22 02:00:00,
2013-02-21 21:05:00,16.7,-1.4,30.29,ENE,76,5.0,10.0,44,0.00,,,-99.99,Weather View 32 v60,2013-02-22 02:05:00,
2013-02-21 21:10:00,16.9,-1.3,30.29,East,96,4.0,10.0,44,0.00,,,-99.99,Weather View 32 v60,2013-02-22 02:10:00,
2013-02-21 21:15:00,16.9,-0.8,30.29,ESE,111,9.0,10.0,45,0.00,,,-99.99,Weather View 32 v60,2013-02-22 02:15:00,
2013-02-21 21:25:00,17.1,-0.6,30.26,ESE,113,4.0,10.0,45,0.00,,,-99.99,Weather View 32 v60,2013-02-22 02:25:00,
2013-02-21 21:30:00,17.1,-0.6,30.26,East,97,4.0,10.0,45,0.00,,,-99.99,Weather View 32 v60,2013-02-22 02:30:00,
2013-02-21 21:35:00,17.2,-0.5,30.26,ENE,74,3.0,10.0,45,0.00,,,-99.99,Weather View 32 v60,2013-02-22 02:35:00,
2013-02-21 21:40:00,17.4,0.2,30.26,NE,44,0.0,10.0,46,0.00,,,-99.99,Weather View 32 v60,2013-02-22 02:40:00,
2013-02-21 21:45:00,17.4,0.2,30.26,ESE,104,3.0,10.0,46,0.00,,,-99.99,Weather View 32 v60,2013-02-22 02:45:00,
2013-02-21 21:50:00,17.6,0.3,30.26,East,93,6.0,10.0,46,0.00,,,-99.99,Weather View 32 v60,2013-02-22 02:50:00,
2013-02-21 21:55:00,17.8,0.5,30.26,ESE,123,4.0,10.0,46,0.00,,,-99.99,Weather View 32 v60,2013-02-22 02:55:00,
2013-02-21 22:05:00,18.3,3.2,30.26,East,94,6.0,11.0,51,0.00,,,-99.99,Weather View 32 v60,2013-02-22 03:05:00,
2013-02-21 22:15:00,18.7,4.0,30.26,ESE,110,5.0,11.0,52,0.00,,,-99.99,Weather View 32 v60,2013-02-22 03:15:00,
2013-02-21 22:20:00,19.0,4.7,30.26,ESE,115,4.0,11.0,53,0.00,,,-99.99,Weather View 32 v60,2013-02-22 03:20:00,
2013-02-21 22:25:00,19.0,4.7,30.26,ENE,64,4.0,11.0,53,0.00,,,-99.99,Weather View 32 v60,2013-02-22 03:25:00,
2013-02-21 22:30:00,19.2,4.9,30.26,East,88,5.0,11.0,53,0.00,,,-99.99,Weather View 32 v60,2013-02-22 03:30:00,
2013-02-21 22:35:00,19.4,5.1,30.26,East,79,9.0,11.0,53,0.00,,,-99.99,Weather View 32 v60,2013-02-22 03:35:00,
2013-02-21 22:40:00,19.6,5.2,30.26,East,97,4.0,11.0,53,0.00,,,-99.99,Weather View 32 v60,2013-02-22 03:40:00,
2013-02-21 22:45:00,19.6,5.6,30.26,ESE,105,6.0,11.0,54,0.00,,,-99.99,Weather View 32 v60,2013-02-22 03:45:00,
2013-02-21 22:55:00,19.8,5.8,30.26,East,95,5.0,11.0,54,0.00,,,-99.99,Weather View 32 v60,2013-02-22 03:55:00,
2013-02-21 23:00:00,19.9,6.0,30.26,East,86,6.0,11.0,54,0.00,,,-99.99,Weather View 32 v60,2013-02-22 04:00:00,
2013-02-21 23:05:00,19.9,6.0,30.26,East,86,6.0,11.0,54,0.00,,,-99.99,Weather View 32 v60,2013-02-22 04:05:00,
2013-02-21 23:10:00,20.1,6.1,30.26,ENE,74,4.0,11.0,54,0.00,,,-99.99,Weather View 32 v60,2013-02-22 04:10:00,
2013-02-21 23:15:00,20.1,6.1,30.26,East,79,4.0,9.0,54,0.00,,,-99.99,Weather View 32 v60,2013-02-22 04:15:00,
2013-02-21 23:20:00,20.1,6.1,30.26,ESE,103,3.0,9.0,54,0.00,,,-99.99,Weather View 32 v60,2013-02-22 04:20:00,
2013-02-21 23:25:00,20.1,6.1,30.26,ESE,116,4.0,9.0,54,0.00,,,-99.99,Weather View 32 v60,2013-02-22 04:25:00,
2013-02-21 23:30:00,20.3,6.3,30.26,East,82,3.0,9.0,54,0.00,,,-99.99,Weather View 32 v60,2013-02-22 04:30:00,
2013-02-21 23:40:00,20.3,6.7,30.23,ENE,74,8.0,9.0,55,0.00,,,-99.99,Weather View 32 v60,2013-02-22 04:40:00,
2013-02-21 23:45:00,20.5,6.9,30.23,East,91,5.0,9.0,55,0.00,,,-99.99,Weather View 32 v60,2013-02-22 04:45:00,
2013-02-21 23:50:00,20.5,6.9,30.23,SE,135,4.0,10.0,55,0.00,,,-99.99,Weather View 32 v60,2013-02-22 04:50:00,
2013-02-21 23:55:00,20.7,7.4,30.23,NE,44,8.0,10.0,56,0.00,,,-99.99,Weather View 32 v60,2013-02-22 04:55:00,